createdAt,value
2024-02-24T00:00:26.538Z,98207.31
2024-02-24T00:01:26.540Z,98204.64
2024-02-24T00:02:26.578Z,98209.08
2024-02-24T00:03:26.631Z,98214.45
2024-02-24T00:04:26.778Z,98211.66
2024-02-24T00:05:26.771Z,98212.91
2024-02-24T00:06:26.635Z,98210.97
2024-02-24T00:07:26.643Z,98214.97
2024-02-24T00:08:26.742Z,98215
2024-02-24T00:09:26.697Z,98215.8
2024-02-24T00:10:26.672Z,98218.25
2024-02-24T00:11:26.782Z,98219.2
2024-02-24T00:12:26.722Z,98222.73
2024-02-24T00:13:26.748Z,98228.56
2024-02-24T00:14:26.979Z,98234.89
2024-02-24T00:15:26.744Z,98240.34
2024-02-24T00:16:26.805Z,98238.39
2024-02-24T00:17:26.832Z,98243.55
2024-02-24T00:18:26.833Z,98251.19
2024-02-24T00:19:26.865Z,98256.22
2024-02-24T00:20:26.845Z,98260.27
2024-02-24T00:21:27.244Z,98259.2
2024-02-24T00:22:26.873Z,98265.84
2024-02-24T00:23:26.889Z,98265.8
2024-02-24T00:24:26.909Z,98269.23
2024-02-24T00:25:26.900Z,98266.77
2024-02-24T00:26:26.962Z,98265.59
2024-02-24T00:27:27.036Z,98271.59
2024-02-24T00:28:26.975Z,98270.25
2024-02-24T00:29:26.990Z,98276.16
2024-02-24T00:30:26.961Z,98279.42
2024-02-24T00:31:27.017Z,98285.09
2024-02-24T00:32:27.050Z,98292.03
2024-02-24T00:33:27.070Z,98286.78
2024-02-24T00:34:27.059Z,98289.41
2024-02-24T00:35:27.122Z,98291.25
2024-02-24T00:36:27.060Z,98296.75
2024-02-24T00:37:27.052Z,98294.02
2024-02-24T00:38:27.208Z,98295.24
2024-02-24T00:39:27.216Z,98286.98
2024-02-24T00:40:27.120Z,98288.19
2024-02-24T00:41:27.197Z,98286.64
2024-02-24T00:42:27.169Z,98285.73
2024-02-24T00:43:27.128Z,98286.5
2024-02-24T00:44:27.210Z,98289.69
2024-02-24T00:45:27.140Z,98294.7
2024-02-24T00:46:27.192Z,98297.17
2024-02-24T00:47:27.313Z,98295.36
2024-02-24T00:48:28.072Z,98293.08
2024-02-24T00:49:27.896Z,98293.64
2024-02-24T00:50:27.266Z,98298.81
2024-02-24T00:51:27.261Z,98297.92
2024-02-24T00:52:27.337Z,98302.37
2024-02-24T00:53:27.422Z,98305.73
2024-02-24T00:54:27.274Z,98308.76
2024-02-24T00:55:27.292Z,98310.58
2024-02-24T00:56:27.378Z,98307.43
2024-02-24T00:57:27.509Z,98307.41
2024-02-24T00:58:27.909Z,98307.7
2024-02-24T00:59:27.901Z,98305.8
2024-02-24T01:00:27.892Z,98301.12
2024-02-24T01:01:28.901Z,98297.62
2024-02-24T01:02:28.000Z,98292.58
2024-02-24T01:03:28.382Z,98290.3
2024-02-24T01:04:28.065Z,98287.06
2024-02-24T01:05:28.020Z,98285.59
2024-02-24T01:06:27.974Z,98278.47
2024-02-24T01:07:28.112Z,98280.45
2024-02-24T01:08:28.018Z,98277.55
2024-02-24T01:09:28.202Z,98278.33
2024-02-24T01:10:28.031Z,98278.2
2024-02-24T01:11:28.258Z,98274.46
2024-02-24T01:12:28.169Z,98276.28
2024-02-24T01:13:28.087Z,98272.91
2024-02-24T01:14:28.138Z,98282.07
2024-02-24T01:15:28.103Z,98284.87
2024-02-24T01:16:28.098Z,98286.77
2024-02-24T01:17:28.304Z,98283.91
2024-02-24T01:18:28.166Z,98287.67
2024-02-24T01:19:28.181Z,98291.27
2024-02-24T01:20:28.168Z,98290
2024-02-24T01:21:28.149Z,98289.28
2024-02-24T01:22:28.254Z,98288.51
2024-02-24T01:23:28.191Z,98289.78
2024-02-24T01:24:28.200Z,98284.31
2024-02-24T01:25:28.334Z,98286.7
2024-02-24T01:26:28.266Z,98289.16
2024-02-24T01:27:28.248Z,98286.17
2024-02-24T01:28:28.267Z,98289.58
2024-02-24T01:29:28.304Z,98288.09
2024-02-24T01:30:28.257Z,98284.92
2024-02-24T01:31:28.292Z,98285.35
2024-02-24T01:32:28.444Z,98284.05
2024-02-24T01:33:28.411Z,98286.22
2024-02-24T01:34:28.724Z,98285.02
2024-02-24T01:35:28.449Z,98292.23
2024-02-24T01:36:28.387Z,98295.54
2024-02-24T01:37:28.392Z,98304.15
2024-02-24T01:38:28.458Z,98305.62
2024-02-24T01:39:28.425Z,98311.77
2024-02-24T01:40:28.518Z,98310.62
2024-02-24T01:41:28.500Z,98309.72
2024-02-24T01:42:28.483Z,98309.92
2024-02-24T01:43:29.292Z,98309.69
2024-02-24T01:44:28.560Z,98307.05
2024-02-24T01:45:28.535Z,98305.76
2024-02-24T01:46:29.176Z,98309.62
2024-02-24T01:47:29.238Z,98308.31
2024-02-24T01:48:28.841Z,98307.67
2024-02-24T01:49:28.781Z,98306.55
2024-02-24T01:50:28.787Z,98305.7
2024-02-24T01:51:28.683Z,98298.14
2024-02-24T01:52:28.638Z,98302.88
2024-02-24T01:53:30.432Z,98304.97
2024-02-24T01:54:29.195Z,98302.2
2024-02-24T01:55:28.697Z,98305.2
2024-02-24T01:56:28.728Z,98308.41
2024-02-24T01:57:28.941Z,98311.81
2024-02-24T01:58:29.949Z,98310.12
2024-02-24T01:59:29.310Z,98311.76
2024-02-24T02:00:28.740Z,98311.02
2024-02-24T02:01:28.754Z,98312.24
2024-02-24T02:02:28.843Z,98310.44
2024-02-24T02:03:28.781Z,98310.83
2024-02-24T02:04:28.884Z,98315
2024-02-24T02:05:29.016Z,98314.84
2024-02-24T02:06:28.988Z,98315.72
2024-02-24T02:07:28.866Z,98318.31
2024-02-24T02:08:29.097Z,98315.86
2024-02-24T02:09:28.912Z,98320.45
2024-02-24T02:11:29.237Z,98318.86
2024-02-24T02:12:29.221Z,98321.36
2024-02-24T02:13:29.095Z,98322.8
2024-02-24T02:14:29.200Z,98327.91
2024-02-24T02:15:29.137Z,98328.3
2024-02-24T02:16:29.173Z,98330.34
2024-02-24T02:17:29.229Z,98327.62
2024-02-24T02:18:31.868Z,98326.22
2024-02-24T02:19:29.884Z,98327.16
2024-02-24T02:20:29.875Z,98326.09
2024-02-24T02:21:31.375Z,98331.66
2024-02-24T02:22:30.249Z,98337.79
2024-02-24T02:23:29.970Z,98345.55
2024-02-24T02:24:29.891Z,98342.05
2024-02-24T02:25:29.901Z,98343.02
2024-02-24T02:26:30.060Z,98338.08
2024-02-24T02:27:29.989Z,98345.31
2024-02-24T02:28:29.972Z,98344.36
2024-02-24T02:29:30.020Z,98342.8
2024-02-24T02:30:30.002Z,98339.98
2024-02-24T02:31:30.007Z,98341.57
2024-02-24T02:32:30.167Z,98344.22
2024-02-24T02:33:30.236Z,98346.65
2024-02-24T02:34:30.150Z,98344.22
2024-02-24T02:35:30.928Z,98344.8
2024-02-24T02:36:30.088Z,98345
2024-02-24T02:37:30.124Z,98343.22
2024-02-24T02:38:30.152Z,98342.88
2024-02-24T02:39:30.133Z,98338.23
2024-02-24T02:40:30.155Z,98339.44
2024-02-24T02:41:30.234Z,98335.27
2024-02-24T02:42:30.215Z,98332.22
2024-02-24T02:43:30.224Z,98329.98
2024-02-24T02:44:30.428Z,98325.03
2024-02-24T02:45:30.215Z,98320.36
2024-02-24T02:46:30.225Z,98319.39
2024-02-24T02:47:30.301Z,98317.73
2024-02-24T02:48:30.449Z,98319.71
2024-02-24T02:49:30.405Z,98324.36
2024-02-24T02:50:30.337Z,98321.47
2024-02-24T02:51:30.311Z,98321.34
2024-02-24T02:52:30.363Z,98323.92
2024-02-24T02:53:30.399Z,98324.52
2024-02-24T02:54:30.347Z,98322.66
2024-02-24T02:55:30.413Z,98318.44
2024-02-24T02:56:30.421Z,98320.61
2024-02-24T02:57:30.460Z,98320.42
2024-02-24T02:58:30.411Z,98319.05
2024-02-24T02:59:30.454Z,98319.98
2024-02-24T03:00:30.467Z,98324.62
2024-02-24T03:01:30.491Z,98322.97
2024-02-24T03:02:30.549Z,98322.88
2024-02-24T03:03:30.598Z,98327.09
2024-02-24T03:04:30.546Z,98331.16
2024-02-24T03:05:30.571Z,98334.69
2024-02-24T03:06:30.570Z,98338.75
2024-02-24T03:07:30.556Z,98331.38
2024-02-24T03:08:30.637Z,98330.98
2024-02-24T03:09:30.616Z,98329.28
2024-02-24T03:10:30.684Z,98330.55
2024-02-24T03:11:31.246Z,98333.83
2024-02-24T03:12:30.833Z,98335.23
2024-02-24T03:13:30.697Z,98332.02
2024-02-24T03:14:30.681Z,98332.05
2024-02-24T03:15:30.712Z,98329.45
2024-02-24T03:16:30.904Z,98324.23
2024-02-24T03:17:30.807Z,98317.92
2024-02-24T03:18:30.802Z,98316.99
2024-02-24T03:19:30.833Z,98313.64
2024-02-24T03:20:30.803Z,98313.09
2024-02-24T03:21:31.642Z,98308.5
2024-02-24T03:22:30.798Z,98310.03
2024-02-24T03:23:30.882Z,98308.89
2024-02-24T03:24:30.821Z,98310
2024-02-24T03:25:30.862Z,98307.27
2024-02-24T03:26:30.954Z,98312.19
2024-02-24T03:27:30.868Z,98308.02
2024-02-24T03:28:30.972Z,98306.61
2024-02-24T03:29:30.950Z,98308.77
2024-02-24T03:30:30.946Z,98305.8
2024-02-24T03:31:31.001Z,98308.55
2024-02-24T03:32:31.036Z,98311.47
2024-02-24T03:33:31.054Z,98310.91
2024-02-24T03:34:31.047Z,98305.91
2024-02-24T03:35:31.102Z,98303.95
2024-02-24T03:36:31.061Z,98300.47
2024-02-24T03:37:31.052Z,98295.53
2024-02-24T03:38:31.147Z,98287.77
2024-02-24T03:39:31.062Z,98280.73
2024-02-24T03:40:31.093Z,98279.58
2024-02-24T03:41:31.680Z,98280.52
2024-02-24T03:42:31.093Z,98284.29
2024-02-24T03:43:31.127Z,98284.16
2024-02-24T03:44:31.168Z,98290.8
2024-02-24T03:45:31.129Z,98291.64
2024-02-24T03:46:31.143Z,98294.64
2024-02-24T03:47:31.227Z,98294.72
2024-02-24T03:48:31.885Z,98305.91
2024-02-24T03:49:31.273Z,98313.58
2024-02-24T03:50:31.229Z,98320.27
2024-02-24T03:51:31.229Z,98324.2
2024-02-24T03:52:31.259Z,98326.62
2024-02-24T03:53:31.339Z,98325.18
2024-02-24T03:54:31.265Z,98326.36
2024-02-24T03:55:31.292Z,98322.14
2024-02-24T03:56:31.362Z,98319.36
2024-02-24T03:57:31.324Z,98321.61
2024-02-24T03:58:31.784Z,98319.05
2024-02-24T03:59:31.417Z,98319.67
2024-02-24T04:00:31.385Z,98319.43
2024-02-24T04:01:31.395Z,98321.69
2024-02-24T04:02:31.473Z,98324.73
2024-02-24T04:03:31.505Z,98328.11
2024-02-24T04:04:31.442Z,98333.16
2024-02-24T04:05:31.991Z,98330.86
2024-02-24T04:06:32.064Z,98334.56
2024-02-24T04:07:31.996Z,98335.77
2024-02-24T04:08:32.106Z,98337.12
2024-02-24T04:09:32.130Z,98341.95
2024-02-24T04:10:32.093Z,98341.03
2024-02-24T04:11:32.180Z,98338.7
2024-02-24T04:12:32.121Z,98334.97
2024-02-24T04:13:32.161Z,98337.45
2024-02-24T04:14:32.170Z,98334.91
2024-02-24T04:15:32.125Z,98340.92
2024-02-24T04:16:32.166Z,98340.59
2024-02-24T04:17:32.307Z,98340.77
2024-02-24T04:18:32.341Z,98343.48
2024-02-24T04:19:32.557Z,98340.59
2024-02-24T04:20:32.309Z,98346.1
2024-02-24T04:21:32.224Z,98342.38
2024-02-24T04:22:32.243Z,98345.31
2024-02-24T04:23:32.369Z,98339.95
2024-02-24T04:24:32.311Z,98338.38
2024-02-24T04:25:32.305Z,98336.88
2024-02-24T04:26:32.361Z,98337.7
2024-02-24T04:27:32.412Z,98336.06
2024-02-24T04:28:32.320Z,98341.4
2024-02-24T04:29:32.405Z,98340.16
2024-02-24T04:30:32.374Z,98341.53
2024-02-24T04:31:32.384Z,98339.41
2024-02-24T04:32:32.519Z,98338.89
2024-02-24T04:33:32.475Z,98337.62
2024-02-24T04:34:32.508Z,98339.36
2024-02-24T04:35:32.465Z,98337.47
2024-02-24T04:36:32.945Z,98336.75
2024-02-24T04:37:32.952Z,98338.14
2024-02-24T04:38:33.042Z,98340.34
2024-02-24T04:39:32.997Z,98338.5
2024-02-24T04:40:34.447Z,98340.58
2024-02-24T04:41:33.077Z,98341.75
2024-02-24T04:42:33.042Z,98343.56
2024-02-24T04:43:35.562Z,98347.14
2024-02-24T04:44:33.261Z,98341.11
2024-02-24T04:45:33.259Z,98340.46
2024-02-24T04:46:33.235Z,98335.63
2024-02-24T04:47:33.360Z,98340.58
2024-02-24T04:48:33.547Z,98340.08
2024-02-24T04:49:33.393Z,98343.82
2024-02-24T04:50:33.370Z,98339.66
2024-02-24T04:51:33.340Z,98342.24
2024-02-24T04:52:33.341Z,98341.03
2024-02-24T04:53:33.454Z,98344.5
2024-02-24T04:54:33.360Z,98343.45
2024-02-24T04:55:33.420Z,98345.94
2024-02-24T04:56:33.509Z,98349.2
2024-02-24T04:57:33.473Z,98348.99
2024-02-24T04:58:33.448Z,98349.67
2024-02-24T04:59:33.514Z,98351.19
2024-02-24T05:00:33.575Z,98350.98
2024-02-24T05:01:33.595Z,98353.87
2024-02-24T05:02:33.616Z,98353.83
2024-02-24T05:03:34.385Z,98350.78
2024-02-24T05:04:33.608Z,98355.3
2024-02-24T05:05:33.740Z,98356
2024-02-24T05:06:33.590Z,98356.98
2024-02-24T05:07:33.707Z,98356.16
2024-02-24T05:08:33.716Z,98359.08
2024-02-24T05:09:33.699Z,98361.4
2024-02-24T05:10:33.630Z,98358.16
2024-02-24T05:11:33.733Z,98358.82
2024-02-24T05:12:33.735Z,98356.27
2024-02-24T05:13:33.675Z,98354.99
2024-02-24T05:14:33.715Z,98357.69
2024-02-24T05:15:33.767Z,98350.66
2024-02-24T05:16:33.739Z,98349.45
2024-02-24T05:17:33.814Z,98349.41
2024-02-24T05:18:33.868Z,98347.09
2024-02-24T05:19:34.120Z,98344.86
2024-02-24T05:20:33.997Z,98347.69
2024-02-24T05:21:33.924Z,98347.75
2024-02-24T05:22:33.925Z,98350.2
2024-02-24T05:23:33.936Z,98350.77
2024-02-24T05:24:33.862Z,98353.48
2024-02-24T05:25:33.919Z,98352.59
2024-02-24T05:26:34.093Z,98354.72
2024-02-24T05:27:33.934Z,98353.22
2024-02-24T05:28:33.925Z,98357.48
2024-02-24T05:29:34.884Z,98351.69
2024-02-24T05:30:33.987Z,98345.53
2024-02-24T05:31:33.971Z,98344.05
2024-02-24T05:32:34.126Z,98344.12
2024-02-24T05:33:34.128Z,98337.06
2024-02-24T05:34:34.081Z,98339.31
2024-02-24T05:35:34.151Z,98336.28
2024-02-24T05:36:34.084Z,98336.16
2024-02-24T05:37:34.401Z,98333.2
2024-02-24T05:38:37.153Z,98330.78
2024-02-24T05:39:34.106Z,98328.31
2024-02-24T05:40:34.125Z,98328.47
2024-02-24T05:41:34.579Z,98332.89
2024-02-24T05:42:34.137Z,98330.8
2024-02-24T05:43:34.384Z,98327.66
2024-02-24T05:44:34.634Z,98322.33
2024-02-24T05:45:34.193Z,98323.34
2024-02-24T05:46:34.211Z,98321.11
2024-02-24T05:47:34.308Z,98320.32
2024-02-24T05:48:34.943Z,98320.39
2024-02-24T05:49:34.394Z,98321.95
2024-02-24T05:50:34.335Z,98323.25
2024-02-24T05:51:34.325Z,98323.17
2024-02-24T05:52:34.328Z,98327.41
2024-02-24T05:53:34.367Z,98325.2
2024-02-24T05:54:34.354Z,98323.91
2024-02-24T05:55:34.390Z,98331.34
2024-02-24T05:56:34.487Z,98332.86
2024-02-24T05:57:34.606Z,98330.7
2024-02-24T05:58:34.586Z,98327.95
2024-02-24T05:59:35.146Z,98326.7
2024-02-24T06:00:34.492Z,98329.22
2024-02-24T06:01:34.463Z,98336.23
2024-02-24T06:02:34.515Z,98333.62
2024-02-24T06:03:34.561Z,98332.98
2024-02-24T06:04:34.529Z,98328.36
2024-02-24T06:05:35.113Z,98328.14
2024-02-24T06:06:35.269Z,98326.19
2024-02-24T06:07:35.335Z,98323.56
2024-02-24T06:08:35.132Z,98325.62
2024-02-24T06:09:35.133Z,98323.03
2024-02-24T06:10:35.361Z,98326.48
2024-02-24T06:11:35.218Z,98324.19
2024-02-24T06:12:35.173Z,98330.56
2024-02-24T06:13:35.193Z,98330.45
2024-02-24T06:14:35.545Z,98326.84
2024-02-24T06:15:35.297Z,98326.83
2024-02-24T06:16:35.261Z,98322.17
2024-02-24T06:17:35.328Z,98320.55
2024-02-24T06:18:35.350Z,98318.75
2024-02-24T06:19:35.438Z,98315.28
2024-02-24T06:20:35.325Z,98310.67
2024-02-24T06:21:35.338Z,98307.3
2024-02-24T06:22:35.341Z,98304.48
2024-02-24T06:23:35.374Z,98302.03
2024-02-24T06:24:35.344Z,98297.73
2024-02-24T06:25:35.369Z,98301.88
2024-02-24T06:26:35.451Z,98300.27
2024-02-24T06:27:35.422Z,98298.27
2024-02-24T06:28:35.416Z,98301.56
2024-02-24T06:29:35.492Z,98300.55
2024-02-24T06:30:35.460Z,98301.66
2024-02-24T06:31:35.470Z,98302.41
2024-02-24T06:32:36.042Z,98301.98
2024-02-24T06:33:36.245Z,98303.75
2024-02-24T06:35:38.195Z,98303.72
2024-02-24T06:36:38.191Z,98301.77
2024-02-24T06:37:38.214Z,98305.95
2024-02-24T06:38:38.223Z,98300.55
2024-02-24T06:39:38.204Z,98300.25
2024-02-24T06:40:45.205Z,98302.17
2024-02-24T06:41:42.596Z,98306.24
2024-02-24T06:42:42.604Z,98308.49
2024-02-24T06:43:42.611Z,98310.61
2024-02-24T06:44:42.629Z,98305.75
2024-02-24T06:45:42.622Z,98305.69
2024-02-24T06:46:42.626Z,98302.3
2024-02-24T06:47:42.807Z,98300.95
2024-02-24T06:48:43.283Z,98302.61
2024-02-24T06:49:42.759Z,98301.88
2024-02-24T06:50:42.933Z,98294.88
2024-02-24T06:51:42.737Z,98300.88
2024-02-24T06:52:42.752Z,98304.18
2024-02-24T06:53:43.492Z,98302.34
2024-02-24T06:54:42.789Z,98302.94
2024-02-24T06:55:42.821Z,98302.67
2024-02-24T06:56:42.843Z,98304.88
2024-02-24T06:57:44.067Z,98309.53
2024-02-24T06:58:42.861Z,98307.38
2024-02-24T06:59:45.009Z,98302.96
2024-02-24T07:00:43.003Z,98304.66
2024-02-24T07:01:42.926Z,98304.44
2024-02-24T07:02:43.033Z,98305.88
2024-02-24T07:03:43.071Z,98301.16
2024-02-24T07:04:43.295Z,98299.2
2024-02-24T07:05:43.142Z,98297.55
2024-02-24T07:06:43.017Z,98299.92
2024-02-24T07:07:43.148Z,98295.8
2024-02-24T07:08:43.031Z,98292.9
2024-02-24T07:09:43.059Z,98292.66
2024-02-24T07:10:43.285Z,98290.94
2024-02-24T07:11:43.306Z,98287.81
2024-02-24T07:12:44.490Z,98287.36
2024-02-24T07:13:43.131Z,98287.34
2024-02-24T07:14:43.173Z,98286.09
2024-02-24T07:15:43.297Z,98288.7
2024-02-24T07:16:43.175Z,98295.28
2024-02-24T07:17:43.444Z,98294.94
2024-02-24T07:18:43.513Z,98293.98
2024-02-24T07:19:43.231Z,98284.59
2024-02-24T07:20:43.485Z,98285.64
2024-02-24T07:21:43.298Z,98279.58
2024-02-24T07:22:43.311Z,98279.64
2024-02-24T07:23:43.295Z,98277.81
2024-02-24T07:24:43.291Z,98279.02
2024-02-24T07:25:43.444Z,98273.85
2024-02-24T07:26:46.851Z,98276.42
2024-02-24T07:27:45.417Z,98269.91
2024-02-24T07:28:45.470Z,98272.56
2024-02-24T07:29:45.563Z,98270.59
2024-02-24T07:30:45.509Z,98270.2
2024-02-24T07:31:45.573Z,98269.44
2024-02-24T07:32:47.738Z,98266.1
2024-02-24T07:33:45.739Z,98264.8
2024-02-24T07:34:45.650Z,98267
2024-02-24T07:35:45.582Z,98266.7
2024-02-24T07:36:45.592Z,98266.98
2024-02-24T07:37:45.572Z,98260.47
2024-02-24T07:38:45.657Z,98257.68
2024-02-24T07:39:45.598Z,98256.64
2024-02-24T07:40:45.646Z,98255.02
2024-02-24T07:41:45.910Z,98255.75
2024-02-24T07:42:45.638Z,98251.52
2024-02-24T07:43:45.688Z,98248.73
2024-02-24T07:44:45.742Z,98245.34
2024-02-24T07:45:45.698Z,98242.78
2024-02-24T07:46:45.714Z,98241.94
2024-02-24T07:47:45.853Z,98239.58
2024-02-24T07:48:45.932Z,98236.8
2024-02-24T07:49:45.851Z,98240.21
2024-02-24T07:50:45.885Z,98235.41
2024-02-24T07:51:45.833Z,98235.83
2024-02-24T07:52:47.741Z,98234.32
2024-02-24T07:53:45.881Z,98231.98
2024-02-24T07:54:45.856Z,98232.56
2024-02-24T07:55:45.861Z,98231.03
2024-02-24T07:56:45.973Z,98230.8
2024-02-24T07:57:45.922Z,98225.17
2024-02-24T07:58:45.915Z,98224.05
2024-02-24T07:59:46.035Z,98221.23
2024-02-24T08:00:50.824Z,98222.12
2024-02-24T08:01:49.212Z,98223.97
2024-02-24T08:02:49.357Z,98222.95
2024-02-24T08:03:49.276Z,98220.78
2024-02-24T08:04:49.326Z,98216.01
2024-02-24T08:05:49.363Z,98217.62
2024-02-24T08:06:49.436Z,98213.41
2024-02-24T08:07:49.309Z,98221.82
2024-02-24T08:08:49.483Z,98219.66
2024-02-24T08:09:49.366Z,98219.86
2024-02-24T08:10:49.597Z,98221.48
2024-02-24T08:11:49.449Z,98221.64
2024-02-24T08:12:49.550Z,98222.68
2024-02-24T08:13:49.411Z,98219.17
2024-02-24T08:14:49.502Z,98214.99
2024-02-24T08:15:49.409Z,98216.38
2024-02-24T08:16:49.463Z,98214.02
2024-02-24T08:17:49.533Z,98220.86
2024-02-24T08:18:49.620Z,98220.58
2024-02-24T08:19:49.610Z,98213.56
2024-02-24T08:20:49.516Z,98213.08
2024-02-24T08:21:50.301Z,98214.51
2024-02-24T08:22:49.582Z,98215.45
2024-02-24T08:23:49.594Z,98219.75
2024-02-24T08:24:49.580Z,98220.53
2024-02-24T08:25:49.596Z,98214.59
2024-02-24T08:26:49.679Z,98217.31
2024-02-24T08:27:49.631Z,98208.81
2024-02-24T08:28:49.664Z,98203.78
2024-02-24T08:29:49.748Z,98208.95
2024-02-24T08:30:49.689Z,98201.41
2024-02-24T08:31:49.695Z,98203.98
2024-02-24T08:32:49.936Z,98205.16
2024-02-24T08:33:49.889Z,98200.85
2024-02-24T08:34:49.782Z,98198.95
2024-02-24T08:35:50.440Z,98198.5
2024-02-24T08:36:49.944Z,98201.7
2024-02-24T08:37:49.993Z,98198.67
2024-02-24T08:38:49.887Z,98196.35
2024-02-24T08:39:49.820Z,98195.8
2024-02-24T08:40:49.861Z,98198.12
2024-02-24T08:41:49.892Z,98203.38
2024-02-24T08:42:49.885Z,98201.06
2024-02-24T08:43:49.892Z,98200.41
2024-02-24T08:44:49.960Z,98199.12
2024-02-24T08:45:49.954Z,98203.83
2024-02-24T08:46:49.933Z,98200.62
2024-02-24T08:47:50.040Z,98194.44
2024-02-24T08:48:50.114Z,98198.72
2024-02-24T08:49:50.084Z,98207.61
2024-02-24T08:50:49.992Z,98203.86
2024-02-24T08:51:50.023Z,98204.81
2024-02-24T08:52:50.735Z,98201.37
2024-02-24T08:53:50.231Z,98199.33
2024-02-24T08:54:50.297Z,98200.08
2024-02-24T08:55:50.069Z,98201.59
2024-02-24T08:56:50.210Z,98204.72
2024-02-24T08:57:50.096Z,98204.95
2024-02-24T08:58:50.566Z,98199.42
2024-02-24T08:59:50.250Z,98200.14
2024-02-24T09:00:50.189Z,98200.46
2024-02-24T09:01:53.771Z,98198.24
2024-02-24T09:02:50.353Z,98202.3
2024-02-24T09:03:51.194Z,98204.66
2024-02-24T09:04:50.214Z,98203.67
2024-02-24T09:05:50.278Z,98199.14
2024-02-24T09:06:50.381Z,98202.73
2024-02-24T09:07:50.332Z,98200.52
2024-02-24T09:08:50.309Z,98198.23
2024-02-24T09:09:50.320Z,98197.29
2024-02-24T09:10:50.282Z,98192.17
2024-02-24T09:11:50.363Z,98198.3
2024-02-24T09:12:50.324Z,98201.31
2024-02-24T09:13:50.321Z,98201.34
2024-02-24T09:14:50.412Z,98204.45
2024-02-24T09:15:50.391Z,98204.31
2024-02-24T09:16:54.400Z,98209.69
2024-02-24T09:17:50.816Z,98206.82
2024-02-24T09:18:50.869Z,98205.59
2024-02-24T09:19:50.880Z,98197.73
2024-02-24T09:20:50.877Z,98203.22
2024-02-24T09:21:50.817Z,98209.45
2024-02-24T09:22:50.811Z,98216.67
2024-02-24T09:23:50.967Z,98213.1
2024-02-24T09:24:50.883Z,98212.85
2024-02-24T09:25:50.858Z,98214.02
2024-02-24T09:26:50.917Z,98210.86
2024-02-24T09:27:50.863Z,98209.06
2024-02-24T09:28:50.879Z,98215.03
2024-02-24T09:29:51.006Z,98211.05
2024-02-24T09:30:51.010Z,98205.42
2024-02-24T09:31:50.952Z,98214.42
2024-02-24T09:32:51.005Z,98207.06
2024-02-24T09:33:50.993Z,98204.47
2024-02-24T09:34:51.027Z,98203.84
2024-02-24T09:35:51.032Z,98207.7
2024-02-24T09:36:51.023Z,98203.51
2024-02-24T09:37:51.042Z,98203.62
2024-02-24T09:38:51.084Z,98198.78
2024-02-24T09:39:51.074Z,98205.59
2024-02-24T09:40:51.045Z,98206.94
2024-02-24T09:41:51.107Z,98199.72
2024-02-24T09:42:51.224Z,98199.44
2024-02-24T09:43:51.139Z,98202.16
2024-02-24T09:44:51.314Z,98197.15
2024-02-24T09:45:51.762Z,98190.5
2024-02-24T09:46:51.374Z,98189.42
2024-02-24T09:47:51.195Z,98190.33
2024-02-24T09:48:52.227Z,98184.22
2024-02-24T09:49:51.315Z,98180.16
2024-02-24T09:50:51.346Z,98173.73
2024-02-24T09:51:51.233Z,98174.18
2024-02-24T09:52:51.248Z,98172.12
2024-02-24T09:53:51.341Z,98170.76
2024-02-24T09:54:51.277Z,98170.94
2024-02-24T09:55:52.151Z,98168.88
2024-02-24T09:56:52.794Z,98165.04
2024-02-24T09:57:53.396Z,98166.26
2024-02-24T09:58:52.274Z,98165.89
2024-02-24T09:59:51.817Z,98163.89
2024-02-24T10:00:51.713Z,98167.95
2024-02-24T10:01:51.452Z,98163.98
2024-02-24T10:02:51.693Z,98169.23
2024-02-24T10:03:51.811Z,98164.72
2024-02-24T10:04:51.454Z,98163.09
2024-02-24T10:05:51.779Z,98175.75
2024-02-24T10:06:51.427Z,98171.48
2024-02-24T10:07:51.420Z,98174.76
2024-02-24T10:08:52.053Z,98171.33
2024-02-24T10:09:51.482Z,98171.13
2024-02-24T10:10:51.496Z,98166.5
2024-02-24T10:11:51.499Z,98167.88
2024-02-24T10:13:54.944Z,98164.86
2024-02-24T10:14:54.973Z,98162.02
2024-02-24T10:15:55.017Z,98168.88
2024-02-24T10:16:54.977Z,98165.7
2024-02-24T10:17:55.543Z,98166.89
2024-02-24T10:18:55.147Z,98175.69
2024-02-24T10:19:56.200Z,98168.8
2024-02-24T10:20:55.091Z,98153.67
2024-02-24T10:21:55.091Z,98162.56
2024-02-24T10:22:55.208Z,98163.12
2024-02-24T10:23:55.379Z,98157.95
2024-02-24T10:24:55.124Z,98156.55
2024-02-24T10:25:55.128Z,98160.41
2024-02-24T10:26:55.265Z,98159.88
2024-02-24T10:27:55.233Z,98158.8
2024-02-24T10:28:55.164Z,98154.78
2024-02-24T10:29:55.894Z,98154.66
2024-02-24T10:30:55.976Z,98155.38
2024-02-24T10:31:55.203Z,98152.28
2024-02-24T10:32:55.580Z,98155.55
2024-02-24T10:33:55.437Z,98148.39
2024-02-24T10:34:55.406Z,98151.06
2024-02-24T10:35:56.569Z,98147.66
2024-02-24T10:36:55.620Z,98150.04
2024-02-24T10:38:10.731Z,98150.3
2024-02-24T10:38:59.050Z,98153.02
2024-02-24T10:39:57.041Z,98145.3
2024-02-24T10:40:57.500Z,98140.06
2024-02-24T10:41:57.517Z,98143.09
2024-02-24T10:42:57.914Z,98145.64
2024-02-24T10:44:06.473Z,98147.73
2024-02-24T10:45:02.262Z,98148.62
2024-02-24T10:46:01.777Z,98147.44
2024-02-24T10:47:01.788Z,98141.04
2024-02-24T10:48:01.915Z,98138.78
2024-02-24T10:49:01.924Z,98142.52
2024-02-24T10:50:02.531Z,98134.29
2024-02-24T10:51:01.975Z,98141.02
2024-02-24T10:52:02.442Z,98143.43
2024-02-24T10:53:02.682Z,98137.88
2024-02-24T10:54:04.199Z,98137.22
2024-02-24T10:55:02.468Z,98134.85
2024-02-24T10:56:03.070Z,98135.83
2024-02-24T10:57:03.047Z,98125.19
2024-02-24T10:58:01.921Z,98122.03
2024-02-24T10:59:11.448Z,98119.17
2024-02-24T11:01:02.914Z,98110.56
2024-02-24T11:02:04.063Z,98109.2
2024-02-24T11:03:04.818Z,98104.91
2024-02-24T11:04:03.085Z,98104.41
2024-02-24T11:05:02.898Z,98102.49
2024-02-24T11:06:03.238Z,98107.98
2024-02-24T11:07:03.532Z,98108.31
2024-02-24T11:08:03.303Z,98104.14
2024-02-24T11:09:04.833Z,98108.53
2024-02-24T11:10:02.968Z,98104.8
2024-02-24T11:13:08.124Z,98098.78
2024-02-24T11:15:08.349Z,98093.7
2024-02-24T11:16:10.266Z,98088.11
2024-02-24T11:17:09.801Z,98091.94
2024-02-24T11:18:08.541Z,98085.67
2024-02-24T11:19:08.324Z,98084.98
2024-02-24T11:20:08.675Z,98087.44
2024-02-24T11:21:08.217Z,98083.49
2024-02-24T11:22:08.317Z,98075.8
2024-02-24T11:25:15.839Z,98081.48
2024-02-24T11:27:13.273Z,98076.2
2024-02-24T11:29:17.392Z,98080.67
2024-02-24T11:31:27.420Z,98081.71
2024-02-24T11:32:22.551Z,98079.5
2024-02-24T11:33:23.108Z,98074.67
2024-02-24T11:34:20.988Z,98073.64
2024-02-24T11:35:20.365Z,98067.61
2024-02-24T11:36:20.176Z,98064.91
2024-02-24T11:37:20.909Z,98064.63
2024-02-24T11:38:20.179Z,98065.29
2024-02-24T11:39:20.989Z,98062.53
2024-02-24T11:40:21.224Z,98059.91
2024-02-24T11:41:20.284Z,98056.72
2024-02-24T11:42:20.317Z,98055.92
2024-02-24T11:43:20.441Z,98051.72
2024-02-24T11:44:20.179Z,98050.77
2024-02-24T11:45:20.192Z,98047.09
2024-02-24T11:46:20.207Z,98042.03
2024-02-24T11:47:20.667Z,98042.24
2024-02-24T11:48:20.948Z,98036.36
2024-02-24T11:49:20.382Z,98036.97
2024-02-24T11:50:20.221Z,98035.56
2024-02-24T11:51:23.356Z,98033.05
2024-02-24T11:52:20.280Z,98037.01
2024-02-24T11:53:20.452Z,98034.12
2024-02-24T11:54:21.110Z,98036.45
2024-02-24T11:55:20.426Z,98028.01
2024-02-24T11:56:20.424Z,98035.78
2024-02-24T11:57:20.580Z,98026.47
2024-02-24T11:58:20.412Z,98018.77
2024-02-24T11:59:20.444Z,98026.32
2024-02-24T12:00:21.153Z,98021.39